createdAt,value
2023-05-07T00:00:11.886Z,37.25
2023-05-07T00:01:11.704Z,37.22
2023-05-07T00:02:11.790Z,37.23
2023-05-07T00:03:11.895Z,37.19
2023-05-07T00:04:12.050Z,37.22
2023-05-07T00:05:12.376Z,37.18
2023-05-07T00:06:12.057Z,37.21
2023-05-07T00:07:12.031Z,37.27
2023-05-07T00:08:12.753Z,37.19
2023-05-07T00:09:12.142Z,37.17
2023-05-07T00:10:12.406Z,37.21
2023-05-07T00:11:12.255Z,37.21
2023-05-07T00:12:12.262Z,37.14
2023-05-07T00:13:12.397Z,37.18
2023-05-07T00:14:12.402Z,37.23
2023-05-07T00:15:12.648Z,37.17
2023-05-07T00:16:12.551Z,37.13
2023-05-07T00:17:12.756Z,37.13
2023-05-07T00:18:12.573Z,37.17
2023-05-07T00:19:12.621Z,37.13
2023-05-07T00:20:12.929Z,37.18
2023-05-07T00:21:13.810Z,37.13
2023-05-07T00:22:12.794Z,37.17
2023-05-07T00:23:12.817Z,37.17
2023-05-07T00:24:12.860Z,37.19
2023-05-07T00:25:12.913Z,37.24
2023-05-07T00:26:12.959Z,37.21
2023-05-07T00:27:13.238Z,37.20
2023-05-07T00:28:13.017Z,37.22
2023-05-07T00:29:13.070Z,37.19
2023-05-07T00:30:13.249Z,37.25
2023-05-07T00:31:13.750Z,37.22
2023-05-07T00:32:13.291Z,37.16
2023-05-07T00:33:13.274Z,37.18
2023-05-07T00:34:13.330Z,37.17
2023-05-07T00:35:13.459Z,37.09
2023-05-07T00:36:13.475Z,37.21
2023-05-07T00:37:13.474Z,37.13
2023-05-07T00:38:13.509Z,37.17
2023-05-07T00:39:13.586Z,37.20
2023-05-07T00:40:13.795Z,37.13
2023-05-07T00:41:13.659Z,37.16
2023-05-07T00:42:13.741Z,37.20
2023-05-07T00:43:13.757Z,37.23
2023-05-07T00:44:13.841Z,37.21
2023-05-07T00:45:14.728Z,37.17
2023-05-07T00:46:16.810Z,37.16
2023-05-07T00:47:13.921Z,37.14
2023-05-07T00:48:13.923Z,37.19
2023-05-07T00:49:13.914Z,37.21
2023-05-07T00:50:14.451Z,37.16
2023-05-07T00:51:13.918Z,37.16
2023-05-07T00:52:13.906Z,37.16
2023-05-07T00:53:13.897Z,37.23
2023-05-07T00:54:13.887Z,37.23
2023-05-07T00:55:13.854Z,37.19
2023-05-07T00:56:13.871Z,37.14
2023-05-07T00:57:13.883Z,37.18
2023-05-07T00:58:13.853Z,37.17
2023-05-07T00:59:13.907Z,37.22
2023-05-07T01:00:14.554Z,37.12
2023-05-07T01:01:13.888Z,37.13
2023-05-07T01:02:14.761Z,37.23
2023-05-07T01:03:13.823Z,37.20
2023-05-07T01:04:13.891Z,37.20
2023-05-07T01:05:13.790Z,37.27
2023-05-07T01:06:13.833Z,37.20
2023-05-07T01:07:13.825Z,37.25
2023-05-07T01:08:13.776Z,37.21
2023-05-07T01:09:13.831Z,37.25
2023-05-07T01:10:14.147Z,37.18
2023-05-07T01:11:13.815Z,37.16
2023-05-07T01:12:14.282Z,37.15
2023-05-07T01:13:13.986Z,37.17
2023-05-07T01:14:13.944Z,37.19
2023-05-07T01:15:14.005Z,37.14
2023-05-07T01:16:14.059Z,37.14
2023-05-07T01:17:14.218Z,37.14
2023-05-07T01:18:14.166Z,37.16
2023-05-07T01:19:14.172Z,37.13
2023-05-07T01:20:14.342Z,37.17
2023-05-07T01:21:14.277Z,37.10
2023-05-07T01:22:14.783Z,37.15
2023-05-07T01:23:14.361Z,37.16
2023-05-07T01:24:14.440Z,37.11
2023-05-07T01:25:14.533Z,37.07
2023-05-07T01:26:14.516Z,37.12
2023-05-07T01:27:14.767Z,37.13
2023-05-07T01:28:14.572Z,37.09
2023-05-07T01:29:14.609Z,37.10
2023-05-07T01:30:14.651Z,37.12
2023-05-07T01:31:14.816Z,37.10
2023-05-07T01:32:14.769Z,37.10
2023-05-07T01:33:14.814Z,37.10
2023-05-07T01:34:14.847Z,37.14
2023-05-07T01:35:14.915Z,37.13
2023-05-07T01:36:14.953Z,37.09
2023-05-07T01:37:15.028Z,37.10
2023-05-07T01:38:15.044Z,37.14
2023-05-07T01:39:15.103Z,37.14
2023-05-07T01:40:15.175Z,37.14
2023-05-07T01:41:15.246Z,37.14
2023-05-07T01:42:15.251Z,37.10
2023-05-07T01:43:15.250Z,37.11
2023-05-07T01:44:15.355Z,37.17
2023-05-07T01:45:15.360Z,37.17
2023-05-07T01:46:15.430Z,37.12
2023-05-07T01:47:15.782Z,37.17
2023-05-07T01:48:15.484Z,37.12
2023-05-07T01:49:15.599Z,37.13
2023-05-07T01:50:15.632Z,37.12
2023-05-07T01:51:15.696Z,37.15
2023-05-07T01:52:15.726Z,37.15
2023-05-07T01:53:15.770Z,37.20
2023-05-07T01:54:15.815Z,37.13
2023-05-07T01:55:15.856Z,37.17
2023-05-07T01:56:15.879Z,37.14
2023-05-07T01:57:15.992Z,37.12
2023-05-07T01:58:15.981Z,37.13
2023-05-07T01:59:16.045Z,37.15
2023-05-07T02:00:16.091Z,37.14
2023-05-07T02:01:16.189Z,37.19
2023-05-07T02:02:16.310Z,37.14
2023-05-07T02:03:16.280Z,37.14
2023-05-07T02:04:16.381Z,37.15
2023-05-07T02:05:16.298Z,37.17
2023-05-07T02:06:16.355Z,37.11
2023-05-07T02:07:17.356Z,37.17
2023-05-07T02:08:16.420Z,37.19
2023-05-07T02:09:16.452Z,37.22
2023-05-07T02:10:17.468Z,37.15
2023-05-07T02:11:16.436Z,37.19
2023-05-07T02:12:16.434Z,37.15
2023-05-07T02:13:16.593Z,37.23
2023-05-07T02:14:16.439Z,37.17
2023-05-07T02:15:16.398Z,37.17
2023-05-07T02:16:16.473Z,37.15
2023-05-07T02:17:16.431Z,37.11
2023-05-07T02:18:16.376Z,37.13
2023-05-07T02:19:16.390Z,37.08
2023-05-07T02:20:16.397Z,37.15
2023-05-07T02:21:16.439Z,37.17
2023-05-07T02:22:16.470Z,37.12
2023-05-07T02:23:16.518Z,37.13
2023-05-07T02:24:16.567Z,37.14
2023-05-07T02:25:16.604Z,37.11
2023-05-07T02:26:16.646Z,37.10
2023-05-07T02:27:16.699Z,37.12
2023-05-07T02:28:16.771Z,37.12
2023-05-07T02:29:16.882Z,37.10
2023-05-07T02:30:16.836Z,37.08
2023-05-07T02:31:16.868Z,37.11
2023-05-07T02:32:16.961Z,37.13
2023-05-07T02:33:16.993Z,37.09
2023-05-07T02:34:17.010Z,37.11
2023-05-07T02:35:17.110Z,37.13
2023-05-07T02:36:17.169Z,37.11
2023-05-07T02:37:17.202Z,37.13
2023-05-07T02:38:17.233Z,37.09
2023-05-07T02:39:17.290Z,37.16
2023-05-07T02:40:17.326Z,37.19
2023-05-07T02:41:17.370Z,37.15
2023-05-07T02:42:17.370Z,37.21
2023-05-07T02:43:17.426Z,37.15
2023-05-07T02:44:17.366Z,37.15
2023-05-07T02:45:17.431Z,37.15
2023-05-07T02:46:17.352Z,37.17
2023-05-07T02:47:17.345Z,37.16
2023-05-07T02:48:17.309Z,37.14
2023-05-07T02:49:17.287Z,37.09
2023-05-07T02:50:17.315Z,37.16
2023-05-07T02:51:17.311Z,37.11
2023-05-07T02:52:17.305Z,37.11
2023-05-07T02:53:17.341Z,37.15
2023-05-07T02:54:17.400Z,37.10
2023-05-07T02:55:17.466Z,37.13
2023-05-07T02:56:17.502Z,37.11
2023-05-07T02:57:17.565Z,37.10
2023-05-07T02:58:17.569Z,37.05
2023-05-07T02:59:17.624Z,37.11
2023-05-07T03:00:17.718Z,37.11
2023-05-07T03:01:17.770Z,37.15
2023-05-07T03:02:17.751Z,37.16
2023-05-07T03:03:17.823Z,37.11
2023-05-07T03:04:17.856Z,37.09
2023-05-07T03:05:17.929Z,37.14
2023-05-07T03:06:17.962Z,37.07
2023-05-07T03:07:18.021Z,37.12
2023-05-07T03:08:18.067Z,37.13
2023-05-07T03:09:18.109Z,37.11
2023-05-07T03:10:18.164Z,37.07
2023-05-07T03:11:18.163Z,37.06
2023-05-07T03:12:18.218Z,37.08
2023-05-07T03:13:18.285Z,37.13
2023-05-07T03:14:18.348Z,37.09
2023-05-07T03:15:18.366Z,37.11
2023-05-07T03:16:18.468Z,37.07
2023-05-07T03:17:18.878Z,37.07
2023-05-07T03:18:18.593Z,37.11
2023-05-07T03:19:18.554Z,37.07
2023-05-07T03:20:18.661Z,37.06
2023-05-07T03:21:18.630Z,37.09
2023-05-07T03:22:18.675Z,37.05
2023-05-07T03:23:18.697Z,37.10
2023-05-07T03:24:18.756Z,37.09
2023-05-07T03:25:18.806Z,37.01
2023-05-07T03:26:18.795Z,37.09
2023-05-07T03:27:18.899Z,37.06
2023-05-07T03:28:18.902Z,37.05
2023-05-07T03:29:18.949Z,37.07
2023-05-07T03:30:19.971Z,37.04
2023-05-07T03:31:19.071Z,37.07
2023-05-07T03:32:19.093Z,37.07
2023-05-07T03:33:19.149Z,37.09
2023-05-07T03:34:19.196Z,37.07
2023-05-07T03:35:19.237Z,37.08
2023-05-07T03:36:19.264Z,37.06
2023-05-07T03:37:19.342Z,37.06
2023-05-07T03:38:19.352Z,37.10
2023-05-07T03:39:19.397Z,37.09
2023-05-07T03:40:19.429Z,37.12
2023-05-07T03:41:19.443Z,37.08
2023-05-07T03:42:19.562Z,37.04
2023-05-07T03:43:19.612Z,37.15
2023-05-07T03:44:19.645Z,37.12
2023-05-07T03:45:19.678Z,37.07
2023-05-07T03:46:19.765Z,37.05
2023-05-07T03:47:19.739Z,37.07
2023-05-07T03:48:19.807Z,37.08
2023-05-07T03:49:19.838Z,37.12
2023-05-07T03:50:19.890Z,37.08
2023-05-07T03:51:19.930Z,37.06
2023-05-07T03:52:20.290Z,37.06
2023-05-07T03:53:20.002Z,37.05
2023-05-07T03:54:20.057Z,37.05
2023-05-07T03:55:20.064Z,37.09
2023-05-07T03:56:20.124Z,37.02
2023-05-07T03:57:20.172Z,37.03
2023-05-07T03:58:20.193Z,37.06
2023-05-07T03:59:20.293Z,37.09
2023-05-07T04:00:20.301Z,37.03
2023-05-07T04:01:20.327Z,37.10
2023-05-07T04:02:20.421Z,37.02
2023-05-07T04:03:20.572Z,37.08
2023-05-07T04:04:20.563Z,37.06
2023-05-07T04:05:20.588Z,37.04
2023-05-07T04:06:20.582Z,37.07
2023-05-07T04:07:20.615Z,37.06
2023-05-07T04:08:20.671Z,37.11
2023-05-07T04:09:20.716Z,37.04
2023-05-07T04:10:20.752Z,37.11
2023-05-07T04:11:20.791Z,37.02
2023-05-07T04:12:20.851Z,37.04
2023-05-07T04:13:20.957Z,37.05
2023-05-07T04:14:20.907Z,37.03
2023-05-07T04:15:20.937Z,37.08
2023-05-07T04:16:21.084Z,37.05
2023-05-07T04:17:21.091Z,37.04
2023-05-07T04:18:21.098Z,37.03
2023-05-07T04:19:21.125Z,37.08
2023-05-07T04:20:21.205Z,37.07
2023-05-07T04:21:21.292Z,37.07
2023-05-07T04:22:21.272Z,37.04
2023-05-07T04:23:21.298Z,37.06
2023-05-07T04:24:21.358Z,37.07
2023-05-07T04:25:21.397Z,37.02
2023-05-07T04:26:21.429Z,37.02
2023-05-07T04:27:21.468Z,37.08
2023-05-07T04:28:21.546Z,37.06
2023-05-07T04:29:21.567Z,37.03
2023-05-07T04:30:21.607Z,37.07
2023-05-07T04:31:23.024Z,37.06
2023-05-07T04:32:21.699Z,37.10
2023-05-07T04:33:21.737Z,37.04
2023-05-07T04:34:21.787Z,37.06
2023-05-07T04:35:21.803Z,37.07
2023-05-07T04:36:21.851Z,37.05
2023-05-07T04:37:21.986Z,36.97
2023-05-07T04:38:21.932Z,37.07
2023-05-07T04:39:21.981Z,37.06
2023-05-07T04:40:22.029Z,37.03
2023-05-07T04:41:22.057Z,37.08
2023-05-07T04:42:22.174Z,37.05
2023-05-07T04:43:22.183Z,37.02
2023-05-07T04:44:22.240Z,37.01
2023-05-07T04:45:22.322Z,37.05
2023-05-07T04:46:22.422Z,37.06
2023-05-07T04:47:22.453Z,37.07
2023-05-07T04:48:22.480Z,37.05
2023-05-07T04:49:22.512Z,37.02
2023-05-07T04:50:22.559Z,37.07
2023-05-07T04:51:22.595Z,37.03
2023-05-07T04:52:22.680Z,37.12
2023-05-07T04:53:22.799Z,37.07
2023-05-07T04:54:22.770Z,37.06
2023-05-07T04:55:22.830Z,37.08
2023-05-07T04:56:22.842Z,37.06
2023-05-07T04:57:22.921Z,37.06
2023-05-07T04:58:22.953Z,37.07
2023-05-07T04:59:23.022Z,37.07
2023-05-07T05:00:23.061Z,37.12
2023-05-07T05:01:23.143Z,37.07
2023-05-07T05:02:23.138Z,37.06
2023-05-07T05:03:23.272Z,37.11
2023-05-07T05:04:23.230Z,37.10
2023-05-07T05:05:23.264Z,37.07
2023-05-07T05:06:23.306Z,37.08
2023-05-07T05:07:23.383Z,37.11
2023-05-07T05:08:23.415Z,37.11
2023-05-07T05:09:23.530Z,37.12
2023-05-07T05:10:24.743Z,37.13
2023-05-07T05:11:23.604Z,37.17
2023-05-07T05:12:23.855Z,37.20
2023-05-07T05:13:23.699Z,37.17
2023-05-07T05:14:23.694Z,37.20
2023-05-07T05:15:23.724Z,37.16
2023-05-07T05:16:23.827Z,37.13
2023-05-07T05:17:23.852Z,37.24
2023-05-07T05:18:23.880Z,37.24
2023-05-07T05:19:23.915Z,37.22
2023-05-07T05:20:23.951Z,37.26
2023-05-07T05:21:24.014Z,37.27
2023-05-07T05:22:24.061Z,37.28
2023-05-07T05:23:24.105Z,37.28
2023-05-07T05:24:24.226Z,37.32
2023-05-07T05:25:24.196Z,37.26
2023-05-07T05:26:24.279Z,37.34
2023-05-07T05:27:24.290Z,37.26
2023-05-07T05:28:24.325Z,37.32
2023-05-07T05:29:24.423Z,37.32
2023-05-07T05:30:24.461Z,37.30
2023-05-07T05:31:24.513Z,37.34
2023-05-07T05:32:24.542Z,37.32
2023-05-07T05:33:24.603Z,37.35
2023-05-07T05:34:24.654Z,37.31
2023-05-07T05:35:24.692Z,37.35
2023-05-07T05:36:24.759Z,37.35
2023-05-07T05:37:24.800Z,37.35
2023-05-07T05:38:24.836Z,37.34
2023-05-07T05:39:24.893Z,37.35
2023-05-07T05:40:24.957Z,37.34
2023-05-07T05:41:25.119Z,37.32
2023-05-07T05:42:25.055Z,37.32
2023-05-07T05:43:25.072Z,37.35
2023-05-07T05:44:25.120Z,37.35
2023-05-07T05:45:25.172Z,37.33
2023-05-07T05:46:25.274Z,37.35
2023-05-07T05:47:25.333Z,37.36
2023-05-07T05:48:25.312Z,37.32
2023-05-07T05:49:25.354Z,37.32
2023-05-07T05:50:25.393Z,37.35
2023-05-07T05:51:25.433Z,37.34
2023-05-07T05:52:25.518Z,37.34
2023-05-07T05:53:25.560Z,37.35
2023-05-07T05:54:25.653Z,37.31
2023-05-07T05:55:25.685Z,37.31
2023-05-07T05:56:25.705Z,37.36
2023-05-07T05:57:27.945Z,37.35
2023-05-07T05:58:25.760Z,37.31
2023-05-07T05:59:25.787Z,37.30
2023-05-07T06:00:25.789Z,37.31
2023-05-07T06:01:25.746Z,37.34
2023-05-07T06:02:26.009Z,37.32
2023-05-07T06:03:25.811Z,37.31
2023-05-07T06:04:25.736Z,37.31
2023-05-07T06:05:25.794Z,37.37
2023-05-07T06:06:25.717Z,37.34
2023-05-07T06:07:25.841Z,37.40
2023-05-07T06:08:25.692Z,37.36
2023-05-07T06:09:25.696Z,37.34
2023-05-07T06:10:25.676Z,37.31
2023-05-07T06:11:25.656Z,37.33
2023-05-07T06:12:25.696Z,37.36
2023-05-07T06:13:26.813Z,37.34
2023-05-07T06:14:25.666Z,37.30
2023-05-07T06:15:25.652Z,37.28
2023-05-07T06:16:25.709Z,37.31
2023-05-07T06:17:25.698Z,37.30
2023-05-07T06:18:25.664Z,37.32
2023-05-07T06:19:25.636Z,37.28
2023-05-07T06:20:25.612Z,37.35
2023-05-07T06:21:25.614Z,37.28
2023-05-07T06:22:25.622Z,37.31
2023-05-07T06:23:25.592Z,37.30
2023-05-07T06:24:25.583Z,37.32
2023-05-07T06:25:25.623Z,37.30
2023-05-07T06:26:25.570Z,37.34
2023-05-07T06:27:25.568Z,37.35
2023-05-07T06:28:25.572Z,37.34
2023-05-07T06:29:25.535Z,37.32
2023-05-07T06:30:25.542Z,37.37
2023-05-07T06:31:25.610Z,37.34
2023-05-07T06:32:25.574Z,37.34
2023-05-07T06:33:25.539Z,37.28
2023-05-07T06:34:25.543Z,37.36
2023-05-07T06:35:25.518Z,37.31
2023-05-07T06:36:25.512Z,37.31
2023-05-07T06:37:25.564Z,37.30
2023-05-07T06:38:25.594Z,37.27
2023-05-07T06:39:25.647Z,37.34
2023-05-07T06:40:25.684Z,37.31
2023-05-07T06:41:25.759Z,37.35
2023-05-07T06:42:25.811Z,37.28
2023-05-07T06:43:25.829Z,37.32
2023-05-07T06:44:25.840Z,37.31
2023-05-07T06:45:25.985Z,37.31
2023-05-07T06:46:26.048Z,37.36
2023-05-07T06:47:26.061Z,37.28
2023-05-07T06:48:26.031Z,37.28
2023-05-07T06:49:26.079Z,37.28
2023-05-07T06:50:26.172Z,37.27
2023-05-07T06:51:26.197Z,37.28
2023-05-07T06:52:26.246Z,37.27
2023-05-07T06:53:26.278Z,37.25
2023-05-07T06:54:26.320Z,37.26
2023-05-07T06:55:26.388Z,37.25
2023-05-07T06:56:26.413Z,37.22
2023-05-07T06:57:26.538Z,37.25
2023-05-07T06:58:26.535Z,37.25
2023-05-07T06:59:26.569Z,37.25
2023-05-07T07:00:26.646Z,37.22
2023-05-07T07:01:26.779Z,37.26
2023-05-07T07:02:26.704Z,37.26
2023-05-07T07:03:26.730Z,37.24
2023-05-07T07:04:26.782Z,37.25
2023-05-07T07:05:26.821Z,37.19
2023-05-07T07:06:26.867Z,37.21
2023-05-07T07:07:26.919Z,37.21
2023-05-07T07:08:26.959Z,37.19
2023-05-07T07:09:26.980Z,37.24
2023-05-07T07:10:27.054Z,37.25
2023-05-07T07:11:27.121Z,37.21
2023-05-07T07:12:27.188Z,37.21
2023-05-07T07:13:27.258Z,37.17
2023-05-07T07:14:27.337Z,37.19
2023-05-07T07:15:27.258Z,37.18
2023-05-07T07:16:27.381Z,37.19
2023-05-07T07:17:27.461Z,37.25
2023-05-07T07:18:27.361Z,37.17
2023-05-07T07:19:27.447Z,37.21
2023-05-07T07:20:27.451Z,37.18
2023-05-07T07:21:27.497Z,37.20
2023-05-07T07:22:27.529Z,37.19
2023-05-07T07:23:27.618Z,37.18
2023-05-07T07:24:27.657Z,37.17
2023-05-07T07:25:27.686Z,37.20
2023-05-07T07:26:27.776Z,37.19
2023-05-07T07:27:27.779Z,37.15
2023-05-07T07:28:27.887Z,37.14
2023-05-07T07:29:27.897Z,37.16
2023-05-07T07:30:27.938Z,37.12
2023-05-07T07:31:28.052Z,37.15
2023-05-07T07:32:28.103Z,37.15
2023-05-07T07:33:28.186Z,37.14
2023-05-07T07:34:28.165Z,37.18
2023-05-07T07:35:28.196Z,37.15
2023-05-07T07:36:42.468Z,37.15
2023-05-07T07:37:29.246Z,37.14
2023-05-07T07:38:28.240Z,37.09
2023-05-07T07:39:28.238Z,37.11
2023-05-07T07:40:28.224Z,37.10
2023-05-07T07:41:28.235Z,37.13
2023-05-07T07:42:28.180Z,37.06
2023-05-07T07:43:28.237Z,37.11
2023-05-07T07:44:28.207Z,37.11
2023-05-07T07:45:28.209Z,37.08
2023-05-07T07:46:28.197Z,37.09
2023-05-07T07:47:28.219Z,37.10
2023-05-07T07:48:28.377Z,37.08
2023-05-07T07:49:28.362Z,37.10
2023-05-07T07:50:40.516Z,37.10
2023-05-07T07:51:29.314Z,37.08
2023-05-07T07:52:28.344Z,37.10
2023-05-07T07:53:28.416Z,37.06
2023-05-07T07:54:28.320Z,37.10
2023-05-07T07:55:28.346Z,37.05
2023-05-07T07:56:28.318Z,37.06
2023-05-07T07:57:28.307Z,37.09
2023-05-07T07:58:28.313Z,37.04
2023-05-07T07:59:28.307Z,37.08
2023-05-07T08:00:28.255Z,37.10
2023-05-07T08:01:28.293Z,37.05
2023-05-07T08:02:28.462Z,37.00
2023-05-07T08:03:28.418Z,37.07
2023-05-07T08:04:28.474Z,37.01
2023-05-07T08:05:28.505Z,37.03
2023-05-07T08:06:28.566Z,37.05
2023-05-07T08:07:28.602Z,37.01
2023-05-07T08:08:28.920Z,37.01
2023-05-07T08:09:28.699Z,37.07
2023-05-07T08:10:28.769Z,37.04
2023-05-07T08:11:28.789Z,37.03
2023-05-07T08:12:28.855Z,37.05
2023-05-07T08:13:28.991Z,37.04
2023-05-07T08:14:28.973Z,36.99
2023-05-07T08:15:28.971Z,37.05
2023-05-07T08:16:31.023Z,37.01
2023-05-07T08:17:29.130Z,37.06
2023-05-07T08:18:29.117Z,36.99
2023-05-07T08:19:29.193Z,36.96
2023-05-07T08:20:29.272Z,37.00
2023-05-07T08:21:29.274Z,37.01
2023-05-07T08:22:29.375Z,37.05
2023-05-07T08:23:29.403Z,36.98
2023-05-07T08:24:29.455Z,37.01
2023-05-07T08:25:29.506Z,37.00
2023-05-07T08:26:29.553Z,36.99
2023-05-07T08:27:29.606Z,36.98
2023-05-07T08:28:29.670Z,36.99
2023-05-07T08:29:29.704Z,36.98
2023-05-07T08:30:29.787Z,36.99
2023-05-07T08:31:29.850Z,36.99
2023-05-07T08:32:29.840Z,37.02
2023-05-07T08:33:29.888Z,36.98
2023-05-07T08:34:29.911Z,36.97
2023-05-07T08:35:30.003Z,36.99
2023-05-07T08:36:30.032Z,36.98
2023-05-07T08:37:30.134Z,37.03
2023-05-07T08:38:30.432Z,36.99
2023-05-07T08:39:30.202Z,36.98
2023-05-07T08:40:30.229Z,36.96
2023-05-07T08:41:30.261Z,36.97
2023-05-07T08:42:30.310Z,36.96
2023-05-07T08:43:30.428Z,36.99
2023-05-07T08:44:30.422Z,36.99
2023-05-07T08:45:30.517Z,36.98
2023-05-07T08:46:30.549Z,36.94
2023-05-07T08:47:30.687Z,36.90
2023-05-07T08:48:30.633Z,36.96
2023-05-07T08:49:30.737Z,36.96
2023-05-07T08:50:30.705Z,36.90
2023-05-07T08:51:30.772Z,36.96
2023-05-07T08:52:30.789Z,36.94
2023-05-07T08:53:30.875Z,36.93
2023-05-07T08:54:30.893Z,37.01
2023-05-07T08:55:30.935Z,36.96
2023-05-07T08:56:30.985Z,36.97
2023-05-07T08:57:31.020Z,36.97
2023-05-07T08:58:31.112Z,36.97
2023-05-07T08:59:31.161Z,36.94
2023-05-07T09:00:31.181Z,36.96
2023-05-07T09:01:31.249Z,37.01
2023-05-07T09:02:31.278Z,36.97
2023-05-07T09:03:31.409Z,36.92
2023-05-07T09:04:31.379Z,36.93
2023-05-07T09:05:31.419Z,36.92
2023-05-07T09:06:31.489Z,36.94
2023-05-07T09:07:31.539Z,36.94
2023-05-07T09:08:31.590Z,36.90
2023-05-07T09:09:31.688Z,36.94
2023-05-07T09:10:31.678Z,36.87
2023-05-07T09:11:31.689Z,36.90
2023-05-07T09:12:31.749Z,36.92
2023-05-07T09:13:31.816Z,36.90
2023-05-07T09:14:31.821Z,36.86
2023-05-07T09:15:31.913Z,36.90
2023-05-07T09:16:31.970Z,36.92
2023-05-07T09:17:32.068Z,36.89
2023-05-07T09:18:32.052Z,36.91
2023-05-07T09:19:32.101Z,36.86
2023-05-07T09:20:32.145Z,36.87
2023-05-07T09:21:32.172Z,36.90
2023-05-07T09:22:32.223Z,36.92
2023-05-07T09:23:32.242Z,36.86
2023-05-07T09:24:32.284Z,36.90
2023-05-07T09:25:32.344Z,36.88
2023-05-07T09:26:32.392Z,36.90
2023-05-07T09:27:32.506Z,36.87
2023-05-07T09:29:32.538Z,36.85
2023-05-07T09:30:32.619Z,36.88
2023-05-07T09:31:32.689Z,36.87
2023-05-07T09:32:32.673Z,36.88
2023-05-07T09:33:32.919Z,36.85
2023-05-07T09:34:32.750Z,36.87
2023-05-07T09:35:32.816Z,36.93
2023-05-07T09:36:32.824Z,36.88
2023-05-07T09:37:32.880Z,36.87
2023-05-07T09:38:32.982Z,36.87
2023-05-07T09:39:32.994Z,36.87
2023-05-07T09:40:33.026Z,36.87
2023-05-07T09:41:33.161Z,36.85
2023-05-07T09:42:33.135Z,36.86
2023-05-07T09:43:33.180Z,36.85
2023-05-07T09:44:33.188Z,36.86
2023-05-07T09:45:33.266Z,36.85
2023-05-07T09:46:33.289Z,36.86
2023-05-07T09:47:33.402Z,36.86
2023-05-07T09:48:33.353Z,36.85
2023-05-07T09:49:33.412Z,36.87
2023-05-07T09:50:33.486Z,36.85
2023-05-07T09:51:33.494Z,36.85
2023-05-07T09:52:33.537Z,36.83
2023-05-07T09:53:33.599Z,36.81
2023-05-07T09:54:33.665Z,36.83
2023-05-07T09:55:33.679Z,36.86
2023-05-07T09:56:33.726Z,36.86
2023-05-07T09:57:33.775Z,36.88
2023-05-07T09:58:33.808Z,36.81
2023-05-07T09:59:33.894Z,36.87
2023-05-07T10:00:33.908Z,36.82
2023-05-07T10:01:34.023Z,36.82
2023-05-07T10:02:33.991Z,36.79
2023-05-07T10:03:34.551Z,36.86
2023-05-07T10:04:34.014Z,36.84
2023-05-07T10:05:34.077Z,36.82
2023-05-07T10:06:34.118Z,36.84
2023-05-07T10:07:34.231Z,36.82
2023-05-07T10:08:34.213Z,36.81
2023-05-07T10:09:34.232Z,36.85
2023-05-07T10:10:34.278Z,36.82
2023-05-07T10:11:34.300Z,36.81
2023-05-07T10:12:34.351Z,36.82
2023-05-07T10:13:34.472Z,36.86
2023-05-07T10:14:34.420Z,36.81
2023-05-07T10:15:34.463Z,36.84
2023-05-07T10:16:34.520Z,36.84
2023-05-07T10:17:34.621Z,36.80
2023-05-07T10:18:34.638Z,36.81
2023-05-07T10:19:34.629Z,36.82
2023-05-07T10:20:34.684Z,36.82
2023-05-07T10:21:34.741Z,36.82
2023-05-07T10:22:34.773Z,36.84
2023-05-07T10:23:34.799Z,36.82
2023-05-07T10:24:34.859Z,36.87
2023-05-07T10:25:34.916Z,36.82
2023-05-07T10:26:34.954Z,36.80
2023-05-07T10:27:34.961Z,36.82
2023-05-07T10:28:35.012Z,36.82
2023-05-07T10:29:35.065Z,36.80
2023-05-07T10:30:37.527Z,36.83
2023-05-07T10:31:35.154Z,36.80
2023-05-07T10:32:35.080Z,36.80
2023-05-07T10:33:35.087Z,36.81
2023-05-07T10:34:35.085Z,36.80
2023-05-07T10:35:35.077Z,36.80
2023-05-07T10:36:36.938Z,36.84
2023-05-07T10:37:35.143Z,36.80
2023-05-07T10:38:35.061Z,36.82
2023-05-07T10:39:35.050Z,36.80
2023-05-07T10:40:35.027Z,36.81
2023-05-07T10:41:35.037Z,36.82
2023-05-07T10:42:34.994Z,36.81
2023-05-07T10:43:35.019Z,36.75
2023-05-07T10:44:34.974Z,36.80
2023-05-07T10:45:35.172Z,36.79
2023-05-07T10:46:35.001Z,36.80
2023-05-07T10:47:35.043Z,36.83
2023-05-07T10:48:35.500Z,36.81
2023-05-07T10:49:34.982Z,36.83
2023-05-07T10:50:34.997Z,36.81
2023-05-07T10:51:34.956Z,36.79
2023-05-07T10:52:34.992Z,36.75
2023-05-07T10:53:34.952Z,36.78
2023-05-07T10:54:37.359Z,36.79
2023-05-07T10:55:34.943Z,36.78
2023-05-07T10:56:34.915Z,36.80
2023-05-07T10:57:34.946Z,36.80
2023-05-07T10:58:34.938Z,36.81
2023-05-07T10:59:34.981Z,36.76
2023-05-07T11:00:39.444Z,36.79
2023-05-07T11:01:34.983Z,36.82
2023-05-07T11:02:34.943Z,36.79
2023-05-07T11:03:34.855Z,36.79
2023-05-07T11:04:34.938Z,36.78
2023-05-07T11:05:37.525Z,36.76
2023-05-07T11:06:34.866Z,36.81
2023-05-07T11:07:34.892Z,36.78
2023-05-07T11:08:34.838Z,36.80
2023-05-07T11:09:34.819Z,36.82
2023-05-07T11:10:34.866Z,36.79
2023-05-07T11:11:36.137Z,36.76
2023-05-07T11:12:34.790Z,36.74
2023-05-07T11:13:34.803Z,36.76
2023-05-07T11:14:34.773Z,36.77
2023-05-07T11:15:34.782Z,36.79
2023-05-07T11:16:34.805Z,36.76
2023-05-07T11:17:37.195Z,36.79
2023-05-07T11:18:34.767Z,36.79
2023-05-07T11:19:34.750Z,36.70
2023-05-07T11:20:34.767Z,36.78
2023-05-07T11:21:34.798Z,36.79
2023-05-07T11:22:34.751Z,36.79
2023-05-07T11:23:34.777Z,36.80
2023-05-07T11:24:34.700Z,36.80
2023-05-07T11:25:34.697Z,36.79
2023-05-07T11:26:34.705Z,36.78
2023-05-07T11:27:34.686Z,36.81
2023-05-07T11:28:34.704Z,36.78
2023-05-07T11:29:34.688Z,36.79
2023-05-07T11:30:34.681Z,36.78
2023-05-07T11:31:34.733Z,36.76
2023-05-07T11:32:34.699Z,36.75
2023-05-07T11:33:34.695Z,36.78
2023-05-07T11:34:34.730Z,36.75
2023-05-07T11:35:37.006Z,36.76
2023-05-07T11:36:34.879Z,36.75
2023-05-07T11:37:34.885Z,36.72
2023-05-07T11:38:34.974Z,36.75
2023-05-07T11:39:34.974Z,36.74
2023-05-07T11:40:34.986Z,36.76
2023-05-07T11:41:35.061Z,36.79
2023-05-07T11:42:35.051Z,36.76
2023-05-07T11:43:35.102Z,36.72
2023-05-07T11:44:35.136Z,36.81
2023-05-07T11:45:35.185Z,36.79
2023-05-07T11:46:35.201Z,36.75
2023-05-07T11:47:35.301Z,36.74
2023-05-07T11:48:35.285Z,36.71
2023-05-07T11:49:35.349Z,36.76
2023-05-07T11:50:35.369Z,36.75
2023-05-07T11:51:35.486Z,36.79
2023-05-07T11:52:35.471Z,36.75
2023-05-07T11:53:35.496Z,36.74
2023-05-07T11:54:35.534Z,36.76
2023-05-07T11:55:35.563Z,36.76
2023-05-07T11:56:35.617Z,36.75
2023-05-07T11:57:35.692Z,36.76
2023-05-07T11:58:35.730Z,36.81
2023-05-07T11:59:35.746Z,36.75
2023-05-07T12:00:35.813Z,36.76
2023-05-07T12:01:35.856Z,36.74
2023-05-07T12:02:36.025Z,36.79
2023-05-07T12:03:36.603Z,36.80
2023-05-07T12:04:36.021Z,36.71
2023-05-07T12:05:36.029Z,36.75
2023-05-07T12:06:36.107Z,36.74
2023-05-07T12:07:36.065Z,36.74
2023-05-07T12:08:36.484Z,36.75
2023-05-07T12:09:36.132Z,36.74
2023-05-07T12:10:36.207Z,36.73
2023-05-07T12:11:36.261Z,36.78
2023-05-07T12:12:36.289Z,36.73
2023-05-07T12:13:36.311Z,36.75
2023-05-07T12:14:36.372Z,36.74
2023-05-07T12:15:36.382Z,36.73
2023-05-07T12:16:36.440Z,36.75
2023-05-07T12:17:36.470Z,36.78
2023-05-07T12:18:36.472Z,36.75
2023-05-07T12:19:36.532Z,36.71
2023-05-07T12:20:36.573Z,36.72
2023-05-07T12:21:36.574Z,36.70
2023-05-07T12:22:36.618Z,36.70
2023-05-07T12:23:36.683Z,36.70
2023-05-07T12:24:36.717Z,36.73
2023-05-07T12:25:36.726Z,36.72
2023-05-07T12:26:36.737Z,36.72
2023-05-07T12:27:36.820Z,36.71
2023-05-07T12:28:36.830Z,36.76
2023-05-07T12:29:36.876Z,36.71
2023-05-07T12:30:36.935Z,36.70
2023-05-07T12:31:36.970Z,36.71
2023-05-07T12:32:36.961Z,36.72
2023-05-07T12:33:37.183Z,36.75
2023-05-07T12:34:37.053Z,36.76
2023-05-07T12:35:37.097Z,36.72
2023-05-07T12:36:37.131Z,36.70
2023-05-07T12:37:37.202Z,36.74
2023-05-07T12:38:37.471Z,36.68
2023-05-07T12:39:37.248Z,36.70
2023-05-07T12:40:37.286Z,36.71
2023-05-07T12:41:37.344Z,36.71
2023-05-07T12:42:37.390Z,36.68
2023-05-07T12:43:37.443Z,36.68
2023-05-07T12:44:37.445Z,36.69
2023-05-07T12:45:37.489Z,36.69
2023-05-07T12:46:37.592Z,36.72
2023-05-07T12:47:37.646Z,36.69
2023-05-07T12:48:37.621Z,36.69
2023-05-07T12:49:37.718Z,36.69
2023-05-07T12:50:37.695Z,36.68
2023-05-07T12:51:37.720Z,36.71
2023-05-07T12:52:37.742Z,36.71
2023-05-07T12:53:37.997Z,36.71